Time;durP1;ratioP1;P1;durP2;ratioP2;P2;SDS_P1;SDS_P2;PMS_P1;PMS_P2;Temp;Humidity;BMP_temperature;BMP_pressure;BME280_temperature;BME280_humidity;BME280_pressure;Samples;Min_cycle;Max_cycle;Signal;HPM_P1;HPM_P2
2021/04/04 00:00:22;;;;;;;46.13;25.15;;;;;;;1.62;72.47;99179.08;1705103;83;21193;-62
2021/04/04 00:02:51;;;;;;;46.60;22.98;;;;;;;1.55;72.22;99181.04;1703431;83;21631;-61
2021/04/04 00:05:19;;;;;;;49.88;25.80;;;;;;;1.57;72.16;99186.98;1709516;83;21153;-62
2021/04/04 00:07:48;;;;;;;48.15;25.08;;;;;;;1.58;72.09;99189.97;1720634;82;21173;-62
2021/04/04 00:10:15;;;;;;;43.90;22.90;;;;;;;1.64;72.40;99183.69;1719125;83;21188;-62
2021/04/04 00:12:43;;;;;;;38.28;20.02;;;;;;;1.74;71.83;99180.45;1705954;83;21188;-62
2021/04/04 00:15:13;;;;;;;40.73;22.10;;;;;;;1.79;71.40;99180.08;1695730;83;21165;-61
2021/04/04 00:17:41;;;;;;;37.65;18.07;;;;;;;1.86;70.55;99176.77;1711642;82;21175;-62
2021/04/04 00:20:14;;;;;;;39.03;20.00;;;;;;;1.97;70.11;99181.36;1720446;83;21589;-62
2021/04/04 00:22:42;;;;;;;35.70;19.00;;;;;;;2.14;69.76;99174.79;1719586;82;21644;-62
2021/04/04 00:25:12;;;;;;;36.95;18.92;;;;;;;2.31;68.80;99165.52;1697050;83;21561;-62
2021/04/04 00:27:39;;;;;;;37.35;18.37;;;;;;;2.34;68.76;99173.93;1694075;83;21490;-62
2021/04/04 00:30:09;;;;;;;31.87;16.82;;;;;;;2.38;68.71;99175.11;1710964;83;21303;-62
2021/04/04 00:32:37;;;;;;;32.15;17.23;;;;;;;2.40;68.49;99173.55;1722572;82;21172;-62
2021/04/04 00:35:15;;;;;;;32.85;17.85;;;;;;;2.44;68.40;99172.83;1691986;83;21240;-62
2021/04/04 00:37:44;;;;;;;35.65;18.73;;;;;;;2.46;68.59;99170.74;1722024;82;21153;-62
2021/04/04 00:40:27;;;;;;;41.60;20.70;;;;;;;2.51;68.72;99171.39;1708802;83;21314;-62
2021/04/04 00:42:54;;;;;;;31.57;16.97;;;;;;;2.58;68.59;99174.78;1713792;83;21172;-62
2021/04/04 00:45:31;;;;;;;30.77;17.48;;;;;;;2.52;69.15;99185.09;1695811;83;21196;-62
2021/04/04 00:47:58;;;;;;;28.02;14.93;;;;;;;2.39;69.35;99181.30;1705427;83;21176;-62
2021/04/04 00:50:29;;;;;;;25.35;13.95;;;;;;;2.29;69.18;99195.31;1718508;83;21149;-62
2021/04/04 00:52:57;;;;;;;22.75;12.40;;;;;;;2.33;68.89;99197.84;1719386;82;21565;-62
2021/04/04 00:55:25;;;;;;;23.07;12.63;;;;;;;2.38;68.22;99203.83;1720204;83;21161;-62
2021/04/04 00:57:53;;;;;;;18.92;10.10;;;;;;;2.34;68.31;99195.94;1722250;82;21210;-62
2021/04/04 01:00:27;;;;;;;21.27;10.98;;;;;;;2.32;68.77;99208.28;1704208;83;21652;-62
2021/04/04 01:02:56;;;;;;;22.65;11.68;;;;;;;2.38;68.76;99198.46;1722173;82;21184;-63
2021/04/04 01:05:30;;;;;;;17.92;9.28;;;;;;;2.46;68.62;99197.61;1710304;83;21209;-62
2021/04/04 01:07:57;;;;;;;18.42;10.20;;;;;;;2.44;68.74;99191.63;1718273;82;21188;-62
2021/04/04 01:10:29;;;;;;;18.17;9.25;;;;;;;2.43;68.86;99194.05;1694739;83;21197;-62
2021/04/04 01:13:35;;;;;;;18.12;8.53;;;;;;;2.44;69.08;99194.32;1712958;83;21213;-63
2021/04/04 01:16:16;;;;;;;12.15;7.33;;;;;;;2.54;68.82;99190.25;1722141;83;21197;-62
2021/04/04 01:19:03;;;;;;;13.80;7.55;;;;;;;2.53;69.34;99193.46;1696497;82;21165;-61
2021/04/04 01:21:39;;;;;;;15.20;6.87;;;;;;;2.50;69.72;99190.72;1706016;83;21632;-62
2021/04/04 01:24:47;;;;;;;14.68;7.45;;;;;;;2.61;69.69;99184.23;1707481;82;21173;-62
2021/04/04 01:27:57;;;;;;;13.40;6.63;;;;;;;2.63;69.61;99194.22;1701222;83;21299;-61
2021/04/04 01:30:29;;;;;;;12.55;6.62;;;;;;;2.59;69.73;99187.70;1702040;83;21999;-62
2021/04/04 01:32:56;;;;;;;11.65;7.03;;;;;;;2.58;69.82;99190.09;1692679;83;21196;-62
2021/04/04 01:35:25;;;;;;;13.43;6.87;;;;;;;2.67;69.85;99186.80;1715564;83;21156;-62
2021/04/04 01:37:55;;;;;;;13.93;6.95;;;;;;;2.74;69.69;99178.63;1643391;86;21214;-61
2021/04/04 01:40:23;;;;;;;15.10;7.12;;;;;;;2.73;69.64;99172.98;1715028;83;21165;-62
2021/04/04 01:42:51;;;;;;;11.73;7.08;;;;;;;2.73;69.75;99168.95;1714300;82;21671;-61
2021/04/04 01:45:20;;;;;;;16.35;7.67;;;;;;;2.77;69.64;99162.02;1692894;83;21636;-61
2021/04/04 01:47:48;;;;;;;13.03;7.12;;;;;;;2.90;69.23;99153.73;1710955;83;21129;-61
2021/04/04 01:50:16;;;;;;;13.18;7.33;;;;;;;2.89;69.30;99156.12;1720607;83;21153;-61
2021/04/04 01:52:44;;;;;;;17.27;7.40;;;;;;;2.82;69.55;99158.11;1694007;83;21185;-61
2021/04/04 01:55:12;;;;;;;16.52;8.10;;;;;;;2.88;69.33;99163.88;1720142;83;21727;-61
2021/04/04 01:57:41;;;;;;;15.30;8.35;;;;;;;2.93;68.94;99159.45;1699136;83;21185;-62
2021/04/04 02:00:15;;;;;;;13.98;8.28;;;;;;;2.94;68.78;99161.61;1701118;83;21177;-62
2021/04/04 02:02:46;;;;;;;16.05;8.30;;;;;;;2.91;68.83;99163.41;1685962;84;21150;-61
2021/04/04 02:05:15;;;;;;;16.17;8.93;;;;;;;2.91;68.64;99160.72;1687687;84;21292;-61
2021/04/04 02:07:45;;;;;;;14.03;7.92;;;;;;;3.01;68.23;99162.30;1705199;82;21193;-61
2021/04/04 02:10:15;;;;;;;14.83;8.45;;;;;;;3.00;68.07;99160.14;1698661;84;21142;-61
2021/04/04 02:12:44;;;;;;;15.68;8.93;;;;;;;2.93;68.11;99169.38;1623716;88;21652;-61
2021/04/04 02:15:14;;;;;;;16.67;8.73;;;;;;;2.86;68.16;99166.83;1700006;84;21553;-62
2021/04/04 02:17:43;;;;;;;15.20;7.17;;;;;;;2.78;68.26;99183.30;1709213;82;21614;-62
2021/04/04 02:20:13;;;;;;;15.32;7.40;;;;;;;2.77;68.44;99183.52;1702773;83;21177;-62
2021/04/04 02:22:41;;;;;;;13.90;7.62;;;;;;;2.79;68.89;99190.32;1696486;82;21319;-62
2021/04/04 02:25:12;;;;;;;16.12;7.05;;;;;;;2.71;69.41;99192.53;1683579;84;21154;-62
2021/04/04 02:27:44;;;;;;;15.13;7.35;;;;;;;2.65;69.73;99192.13;1708702;82;21177;-62
2021/04/04 02:30:16;;;;;;;14.68;6.72;;;;;;;2.60;70.05;99195.51;1689019;84;21197;-62
2021/04/04 02:32:51;;;;;;;14.90;7.70;;;;;;;2.65;70.07;99191.61;1696489;82;21762;-62
2021/04/04 02:35:34;;;;;;;13.78;8.15;;;;;;;2.65;70.25;99192.95;1703075;84;21652;-62
2021/04/04 02:38:05;;;;;;;12.20;6.60;;;;;;;2.59;70.57;99190.38;1708827;82;21336;-62
2021/04/04 02:40:33;;;;;;;16.07;8.25;;;;;;;2.50;70.96;99193.41;1679159;84;21178;-62
2021/04/04 02:43:01;;;;;;;14.25;7.92;;;;;;;2.49;71.42;99190.42;1621959;88;21342;-62
2021/04/04 02:45:29;;;;;;;15.20;8.38;;;;;;;2.57;71.06;99197.33;1688134;84;21150;-62
2021/04/04 02:48:04;;;;;;;16.15;9.30;;;;;;;2.53;71.20;99193.98;1681739;84;21210;-61
2021/04/04 02:50:32;;;;;;;15.98;8.75;;;;;;;2.45;71.41;99193.80;1634397;88;21187;-62
2021/04/04 02:53:01;;;;;;;13.98;7.78;;;;;;;2.38;71.50;99196.59;1644607;86;21184;-62
2021/04/04 02:55:30;;;;;;;13.15;7.40;;;;;;;2.40;71.44;99197.20;1662900;86;21119;-62
2021/04/04 02:57:59;;;;;;;12.23;7.40;;;;;;;2.43;71.57;99202.11;1671696;84;21201;-62
2021/04/04 03:00:27;;;;;;;15.03;7.70;;;;;;;2.32;71.62;99203.42;1698332;83;21562;-62
2021/04/04 03:02:54;;;;;;;15.20;7.33;;;;;;;2.19;71.78;99207.67;1712310;82;21161;-62
2021/04/04 03:05:23;;;;;;;14.13;7.25;;;;;;;2.20;71.63;99208.77;1709564;83;21161;-62
2021/04/04 03:07:51;;;;;;;12.63;6.87;;;;;;;2.23;71.45;99204.83;1687615;83;21206;-62
2021/04/04 03:10:18;;;;;;;17.73;7.42;;;;;;;2.14;71.61;99211.56;1713563;83;21149;-62
2021/04/04 03:12:48;;;;;;;13.30;6.60;;;;;;;2.06;71.77;99214.05;1722452;82;21181;-62
2021/04/04 03:15:16;;;;;;;11.90;6.37;;;;;;;2.00;71.97;99210.94;1717668;83;21292;-62
2021/04/04 03:17:44;;;;;;;12.35;6.70;;;;;;;2.05;72.02;99211.61;1721448;82;21173;-62
2021/04/04 03:20:14;;;;;;;13.00;7.53;;;;;;;2.10;71.94;99211.72;1718059;83;21205;-62
2021/04/04 03:22:43;;;;;;;13.98;7.12;;;;;;;2.05;72.12;99212.95;1720832;82;21620;-62
2021/04/04 03:25:12;;;;;;;12.37;6.50;;;;;;;1.96;72.38;99211.10;1719782;83;21607;-62
2021/04/04 03:27:43;;;;;;;9.88;5.70;;;;;;;1.93;72.66;99219.62;1712139;83;21537;-62
2021/04/04 03:30:35;;;;;;;11.43;5.83;;;;;;;2.02;72.55;99228.17;1713441;83;21145;-62
2021/04/04 03:32:41;;;;;;;10.18;5.55;;;;;;;2.00;72.84;99230.56;1716794;82;21201;-62
2021/04/04 03:35:12;;;;;;;13.55;5.97;;;;;;;1.92;73.35;99228.70;1697842;83;21153;-62
2021/04/04 03:37:39;;;;;;;12.88;5.72;;;;;;;1.89;73.40;99229.17;1706759;82;21549;-62
2021/04/04 03:40:09;;;;;;;10.70;5.15;;;;;;;1.94;73.73;99230.14;1702192;83;21335;-62
2021/04/04 03:42:36;;;;;;;9.50;5.08;;;;;;;1.97;73.80;99231.54;1700691;83;21223;-62
2021/04/04 03:45:06;;;;;;;9.88;5.03;;;;;;;1.89;74.19;99234.02;1695493;83;21186;-62
2021/04/04 03:47:34;;;;;;;8.40;4.15;;;;;;;1.81;74.58;99234.33;1713605;82;21236;-62
2021/04/04 03:50:02;;;;;;;6.97;3.80;;;;;;;1.84;74.87;99236.55;1722132;83;21177;-62
2021/04/04 03:52:30;;;;;;;8.60;4.62;;;;;;;1.90;74.79;99238.34;1695121;82;21221;-62
2021/04/04 03:54:58;;;;;;;6.95;4.08;;;;;;;1.87;74.95;99249.55;1697778;83;21129;-61
2021/04/04 03:57:26;;;;;;;6.70;3.47;;;;;;;1.82;75.31;99237.83;1709894;82;21715;-61
2021/04/04 03:59:53;;;;;;;9.45;3.62;;;;;;;1.90;75.16;99240.20;1711914;83;21177;-61
2021/04/04 04:02:23;;;;;;;8.20;3.58;;;;;;;1.93;75.07;99246.46;1643483;86;21827;-61
2021/04/04 04:04:51;;;;;;;5.90;3.52;;;;;;;1.91;75.22;99243.98;1673084;83;21512;-62
2021/04/04 04:07:19;;;;;;;7.03;3.98;;;;;;;1.90;75.39;99252.28;1638615;86;21194;-61
2021/04/04 04:09:47;;;;;;;9.93;3.98;;;;;;;1.98;75.33;99254.11;1695836;83;21279;-61
2021/04/04 04:12:14;;;;;;;8.00;4.00;;;;;;;2.10;75.08;99259.53;1695668;83;21173;-61
2021/04/04 04:14:41;;;;;;;6.33;3.90;;;;;;;2.11;75.24;99262.52;1700733;83;21338;-61
2021/04/04 04:17:10;;;;;;;7.65;4.00;;;;;;;2.08;75.46;99258.95;1647223;86;21209;-61
2021/04/04 04:19:38;;;;;;;6.97;3.65;;;;;;;2.07;75.79;99265.88;1713002;83;21130;-62
2021/04/04 04:22:06;;;;;;;8.30;4.25;;;;;;;2.17;75.66;99264.28;1722555;83;21161;-61
2021/04/04 04:24:34;;;;;;;7.15;3.85;;;;;;;2.22;75.56;99267.11;1667537;83;21176;-62
2021/04/04 04:27:01;;;;;;;7.62;4.00;;;;;;;2.19;76.27;99266.23;1702722;83;21605;-62
2021/04/04 04:29:29;;;;;;;6.33;3.80;;;;;;;2.21;76.37;99272.17;1700531;83;21179;-62
2021/04/04 04:31:57;;;;;;;5.00;3.20;;;;;;;2.34;76.27;99265.78;1708234;83;21173;-62
2021/04/04 04:34:25;;;;;;;7.15;3.83;;;;;;;2.39;76.34;99270.77;1654289;86;21211;-62
2021/04/04 04:36:52;;;;;;;7.85;3.50;;;;;;;2.38;76.75;99270.98;1683504;83;21652;-62
2021/04/04 04:39:21;;;;;;;6.55;3.50;;;;;;;2.40;77.00;99276.97;1722067;82;21246;-62
2021/04/04 04:41:49;;;;;;;5.65;3.33;;;;;;;2.53;77.39;99271.38;1716770;83;21299;-62
2021/04/04 04:44:26;;;;;;;5.58;3.20;;;;;;;2.60;77.27;99261.86;1707321;82;21206;-62
2021/04/04 04:46:54;;;;;;;;;;;;;;;2.57;78.25;99268.53;1722235;83;21172;-62
2021/04/04 04:49:23;;;;;;;7.22;3.22;;;;;;;2.65;78.29;99272.23;1711850;83;20283;-62
2021/04/04 04:51:51;;;;;;;5.92;3.20;;;;;;;2.68;78.66;99269.59;1709612;83;21359;-62
2021/04/04 04:54:18;;;;;;;6.65;3.20;;;;;;;2.65;78.45;99272.23;1651578;86;21185;-62
2021/04/04 04:56:46;;;;;;;7.33;3.20;;;;;;;2.67;78.59;99276.02;1707660;83;21168;-62
2021/04/04 04:59:13;;;;;;;6.78;3.40;;;;;;;2.81;78.32;99274.22;1668788;83;21872;-62
2021/04/04 05:01:44;;;;;;;6.50;3.10;;;;;;;2.89;78.17;99275.75;1667815;84;21275;-62
2021/04/04 05:04:11;;;;;;;6.12;3.50;;;;;;;2.85;78.48;99275.40;1719787;83;21168;-62
2021/04/04 05:06:39;;;;;;;4.72;2.62;;;;;;;2.83;78.55;99278.03;1728005;83;21157;-62
2021/04/04 05:09:07;;;;;;;7.65;5.92;;;;;;;2.95;78.34;99279.66;1720841;81;21148;-62
2021/04/04 05:11:42;;;;;;;5.97;3.25;;;;;;;3.01;78.16;99288.12;1727902;83;21176;-62
2021/04/04 05:14:11;;;;;;;6.65;3.80;;;;;;;3.02;78.22;99280.89;1714029;83;21768;-61
2021/04/04 05:16:40;;;;;;;5.00;3.00;;;;;;;3.00;78.33;99282.48;1727969;83;21327;-62
2021/04/04 05:19:10;;;;;;;7.05;3.15;;;;;;;3.08;78.20;99287.22;1730199;81;21578;-62
2021/04/04 05:21:40;;;;;;;8.08;5.17;;;;;;;3.17;77.91;99289.84;1729846;83;21355;-61
2021/04/04 05:24:10;;;;;;;8.03;3.72;;;;;;;3.19;78.09;99293.92;1659179;85;21574;-61
2021/04/04 05:26:43;;;;;;;7.12;4.85;;;;;;;3.20;78.02;99294.22;1663061;86;21168;-61
2021/04/04 05:29:13;;;;;;;13.72;7.87;;;;;;;3.31;78.04;99300.13;1666476;86;21220;-60
2021/04/04 05:31:49;;;;;;;6.40;4.10;;;;;;;3.38;77.64;99298.13;1667983;85;21634;-63
2021/04/04 05:34:22;;;;;;;5.27;3.37;;;;;;;3.29;78.04;99305.45;1641184;85;21185;-60
2021/04/04 05:36:54;;;;;;;8.38;6.00;;;;;;;3.29;78.04;99305.45;1657551;86;21235;-61
2021/04/04 05:39:26;;;;;;;6.90;3.85;;;;;;;3.35;77.57;99309.36;1694551;84;21620;-61
2021/04/04 05:41:57;;;;;;;9.45;5.97;;;;;;;3.37;77.35;99300.52;1684237;84;21177;-61
2021/04/04 05:44:57;;;;;;;7.67;4.90;;;;;;;3.29;77.60;99308.97;1663388;86;21322;-64
2021/04/04 05:47:47;;;;;;;7.55;5.47;;;;;;;3.23;77.79;99305.03;1644724;86;21317;-61
2021/04/04 05:50:29;;;;;;;15.20;13.20;;;;;;;3.29;77.64;99315.70;1679383;84;21303;-61
2021/04/04 05:53:08;;;;;;;9.00;5.97;;;;;;;3.30;77.77;99314.62;1683358;84;21193;-61
2021/04/04 05:55:54;;;;;;;5.97;3.75;;;;;;;3.26;77.93;99322.86;1692958;84;21169;-63
2021/04/04 05:58:35;;;;;;;5.22;3.72;;;;;;;3.30;77.96;99329.94;1703615;82;21171;-64
2021/04/04 06:01:26;;;;;;;6.50;3.90;;;;;;;3.33;77.56;99331.63;1698214;84;21302;-61
2021/04/04 06:04:32;;;;;;;7.30;4.50;;;;;;;3.30;77.77;99333.45;1691935;84;21157;-61
2021/04/04 06:07:08;;;;;;;6.60;5.62;;;;;;;3.17;78.27;99341.77;1704006;84;21210;-61
2021/04/04 06:09:58;;;;;;;10.48;7.45;;;;;;;3.17;78.51;99338.25;1705620;84;21280;-61
2021/04/04 06:12:51;;;;;;;7.00;4.70;;;;;;;3.24;78.46;99336.27;1693098;84;21185;-61
2021/04/04 06:16:05;;;;;;;7.47;4.25;;;;;;;3.22;78.61;99335.17;1665327;86;21671;-61
2021/04/04 06:18:57;;;;;;;5.55;3.72;;;;;;;3.30;78.54;99333.97;1647497;85;21174;-61
2021/04/04 06:21:33;;;;;;;8.85;5.62;;;;;;;3.57;78.25;99328.94;1709814;84;21169;-61
2021/04/04 06:24:12;;;;;;;6.58;4.22;;;;;;;3.80;78.26;99332.39;1701346;82;21138;-61
2021/04/04 06:26:45;;;;;;;9.00;5.95;;;;;;;4.13;77.83;99330.37;1666597;86;21192;-61
2021/04/04 06:29:36;;;;;;;12.53;7.53;;;;;;;4.60;76.23;99331.00;1634361;88;21201;-62
2021/04/04 06:32:11;;;;;;;12.58;9.43;;;;;;;5.06;75.19;99324.48;1687223;84;21233;-61
2021/04/04 06:34:49;;;;;;;27.52;18.65;;;;;;;5.29;72.69;99324.30;1706390;83;21479;-62
2021/04/04 06:37:54;;;;;;;10.48;6.55;;;;;;;5.46;71.95;99326.95;1696416;84;21216;-63
2021/04/04 06:40:49;;;;;;;13.18;8.45;;;;;;;5.92;70.93;99332.47;1686492;84;21165;-62
2021/04/04 06:43:34;;;;;;;7.80;5.30;;;;;;;6.34;69.34;99326.75;1666716;85;21612;-64
2021/04/04 06:46:34;;;;;;;7.45;4.00;;;;;;;6.62;67.59;99328.41;1682322;84;21158;-61
2021/04/04 06:49:46;;;;;;;6.50;3.55;;;;;;;6.77;65.98;99327.71;1683497;84;21205;-60
2021/04/04 06:52:34;;;;;;;6.22;3.83;;;;;;;7.04;64.11;99335.27;1704233;82;21182;-61
2021/04/04 06:55:07;;;;;;;7.70;4.55;;;;;;;7.05;63.54;99340.16;1710385;84;21948;-60
2021/04/04 06:57:55;;;;;;;6.53;4.17;;;;;;;6.96;63.89;99343.33;1711617;82;21319;-59
2021/04/04 07:00:27;;;;;;;;;;;;;;;7.06;63.64;99347.18;1694101;84;21169;-61
2021/04/04 07:03:08;;;;;;;5.70;3.20;;;;;;;7.11;62.72;99349.94;1689652;84;20309;-60
2021/04/04 07:05:50;;;;;;;10.72;4.87;;;;;;;6.97;62.90;99358.50;1722089;83;21154;-60
2021/04/04 07:09:04;;;;;;;9.63;6.00;;;;;;;6.88;63.13;99351.08;1709413;82;21630;-61
2021/04/04 07:11:58;;;;;;;10.40;5.72;;;;;;;6.88;63.88;99356.50;1711823;83;21157;-60
2021/04/04 07:15:02;;;;;;;10.95;7.37;;;;;;;7.05;63.37;99359.10;1711065;82;21181;-61
2021/04/04 07:17:56;;;;;;;8.03;5.03;;;;;;;7.09;63.10;99358.30;1716485;82;21165;-62
2021/04/04 07:20:48;;;;;;;5.20;3.30;;;;;;;6.97;62.48;99358.50;1722041;83;21154;-60
2021/04/04 07:23:36;;;;;;;8.15;4.90;;;;;;;6.85;62.05;99350.25;1702358;83;21222;-61
2021/04/04 07:26:24;;;;;;;7.90;4.95;;;;;;;6.75;62.48;99358.27;1715872;83;21160;-61
2021/04/04 07:29:06;;;;;;;12.98;7.45;;;;;;;6.63;63.15;99369.77;1721955;82;21299;-61
2021/04/04 07:32:14;;;;;;;5.47;3.45;;;;;;;6.71;63.40;99361.20;1718099;83;21589;-60
2021/04/04 07:34:49;;;;;;;8.63;4.22;;;;;;;6.76;64.01;99362.63;1705588;83;21137;-62
2021/04/04 07:37:39;;;;;;;5.75;3.65;;;;;;;6.80;64.29;99359.69;1709206;82;22617;-61
2021/04/04 07:40:31;;;;;;;6.05;3.90;;;;;;;6.96;64.26;99359.56;1696774;83;21159;-61
2021/04/04 07:43:09;;;;;;;6.03;4.00;;;;;;;7.11;63.21;99357.53;1703890;83;21185;-61
2021/04/04 07:46:00;;;;;;;6.40;4.15;;;;;;;7.25;62.45;99357.38;1641545;86;21181;-61
2021/04/04 07:48:50;;;;;;;6.15;4.10;;;;;;;7.48;61.76;99351.56;1693751;83;21175;-61
2021/04/04 07:51:20;;;;;;;8.45;4.72;;;;;;;7.89;62.54;99359.95;1642014;86;21323;-61
2021/04/04 07:54:06;;;;;;;6.20;4.17;;;;;;;8.27;59.82;99346.02;1709800;82;21190;-60
2021/04/04 07:56:51;;;;;;;7.10;3.42;;;;;;;8.46;58.64;99354.52;1652248;86;21175;-61
2021/04/04 07:59:39;;;;;;;6.28;3.55;;;;;;;8.53;57.06;99346.94;1712253;83;21186;-61
2021/04/04 08:02:30;;;;;;;5.50;3.35;;;;;;;8.42;57.22;99349.34;1720355;83;21164;-61
2021/04/04 08:05:06;;;;;;;6.22;3.70;;;;;;;8.37;57.00;99347.97;1708556;83;21129;-61
2021/04/04 08:08:04;;;;;;;5.25;3.52;;;;;;;8.35;57.17;99348.78;1707485;83;21188;-61
2021/04/04 08:10:59;;;;;;;6.05;3.42;;;;;;;8.41;56.09;99351.24;1714942;83;21750;-61
2021/04/04 08:13:42;;;;;;;5.70;3.60;;;;;;;8.44;56.09;99349.34;1714125;81;21129;-61
2021/04/04 08:17:41;;;;;;;6.33;4.65;;;;;;;8.35;57.65;99344.72;1793341;78;23029;-62
2021/04/04 08:20:38;;;;;;;16.70;10.03;;;;;;;8.16;59.02;99340.81;1752131;81;21335;-62
2021/04/04 08:23:11;;;;;;;22.65;12.68;;;;;;;7.96;61.58;99357.28;1748252;81;21144;-61
2021/04/04 08:26:04;;;;;;;20.30;11.80;;;;;;;7.62;63.70;99360.58;1753400;81;22070;-60
2021/04/04 08:28:44;;;;;;;22.10;15.50;;;;;;;7.40;64.17;99359.38;1703157;83;21165;-62
2021/04/04 08:31:21;;;;;;;6.60;5.00;;;;;;;6.97;64.90;99361.20;1697617;83;21363;-62
2021/04/04 08:34:11;;;;;;;12.18;8.08;;;;;;;6.61;65.89;99359.23;1698678;83;21165;-62
2021/04/04 08:36:43;;;;;;;8.93;6.80;;;;;;;6.41;67.20;99361.16;1716413;82;21319;-62
2021/04/04 08:39:10;;;;;;;5.62;4.70;;;;;;;6.23;67.08;99362.05;1715082;83;21327;-62
2021/04/04 08:41:39;;;;;;;10.53;8.95;;;;;;;6.26;67.94;99371.00;1710914;83;21194;-62
2021/04/04 08:44:17;;;;;;;8.73;5.72;;;;;;;6.22;67.88;99370.69;1671130;83;21329;-62
2021/04/04 08:46:52;;;;;;;10.48;7.55;;;;;;;6.17;68.46;99369.27;1708361;83;21709;-62
2021/04/04 08:49:19;;;;;;;13.18;8.03;;;;;;;6.13;68.10;99366.78;1719367;83;21295;-62
2021/04/04 08:52:06;;;;;;;9.13;5.92;;;;;;;6.19;68.88;99360.39;1719077;83;21628;-62
2021/04/04 08:54:35;;;;;;;9.65;6.97;;;;;;;6.56;68.91;99370.51;1709163;83;21149;-62
2021/04/04 08:57:04;;;;;;;8.95;7.10;;;;;;;6.92;67.93;99363.03;1691144;83;21597;-62
2021/04/04 08:59:33;;;;;;;5.17;4.42;;;;;;;7.15;66.15;99352.41;1678861;83;21145;-62
2021/04/04 09:02:04;;;;;;;5.72;4.20;;;;;;;7.36;63.93;99350.95;1682020;83;21751;-62
2021/04/04 09:04:35;;;;;;;7.62;5.10;;;;;;;7.53;62.67;99349.97;1671065;84;21293;-63
2021/04/04 09:07:04;;;;;;;6.28;4.22;;;;;;;7.63;63.06;99348.14;1708963;83;21165;-62
2021/04/04 09:09:38;;;;;;;9.15;5.90;;;;;;;7.83;61.85;99348.25;1716281;83;21331;-61
2021/04/04 09:12:07;;;;;;;7.67;5.92;;;;;;;7.98;59.63;99344.27;1680683;84;21322;-61
2021/04/04 09:14:37;;;;;;;8.00;4.58;;;;;;;8.21;60.03;99340.84;1718697;83;21303;-61
2021/04/04 09:17:14;;;;;;;6.42;5.00;;;;;;;8.50;59.64;99340.13;1708434;83;21154;-63
2021/04/04 09:19:46;;;;;;;8.30;4.45;;;;;;;8.73;58.80;99332.59;1704485;84;21288;-62
2021/04/04 09:22:21;;;;;;;7.70;5.00;;;;;;;8.74;59.13;99341.01;1710343;84;21664;-62
2021/04/04 09:25:08;;;;;;;6.17;4.90;;;;;;;8.62;59.44;99336.36;1713018;83;21379;-62
2021/04/04 09:27:41;;;;;;;6.47;4.47;;;;;;;8.42;60.70;99339.86;1755034;81;21157;-62
2021/04/04 09:30:34;;;;;;;6.28;4.42;;;;;;;8.15;61.75;99341.34;1761610;81;21530;-62
2021/04/04 09:33:14;;;;;;;7.83;4.37;;;;;;;7.82;62.49;99348.53;1703794;83;21588;-62
2021/04/04 09:35:42;;;;;;;5.15;3.85;;;;;;;7.62;62.43;99347.03;1746445;81;21289;-62
2021/04/04 09:38:12;;;;;;;6.70;4.33;;;;;;;7.49;61.77;99349.68;1747113;80;21161;-61
2021/04/04 09:40:40;;;;;;;6.42;4.67;;;;;;;7.36;62.95;99348.78;1744652;81;21645;-62
2021/04/04 09:43:16;;;;;;;5.15;4.03;;;;;;;7.24;64.15;99353.02;1721791;81;21293;-62
2021/04/04 09:45:44;;;;;;;6.42;5.05;;;;;;;7.29;64.40;99349.02;1744273;81;21203;-62
2021/04/04 09:48:21;;;;;;;8.90;5.40;;;;;;;7.58;65.15;99341.89;1727022;81;21178;-62
2021/04/04 09:50:49;;;;;;;;;;;;;;;7.78;63.74;99339.29;1749075;81;21522;-62
2021/04/04 09:53:38;;;;;;;8.08;6.40;;;;;;;7.86;64.74;99340.16;1748858;80;20183;-62
2021/04/04 09:56:28;;;;;;;8.78;6.37;;;;;;;7.72;65.18;99326.80;1793074;78;23542;-60
2021/04/04 09:58:56;;;;;;;7.37;5.67;;;;;;;7.58;65.36;99335.12;1762534;80;21203;-62
2021/04/04 10:01:28;;;;;;;7.37;5.70;;;;;;;7.61;65.36;99329.17;1766654;80;21144;-62
2021/04/04 10:04:03;;;;;;;9.13;6.15;;;;;;;7.74;65.82;99336.83;1761402;80;21156;-62
2021/04/04 10:06:34;;;;;;;9.58;6.70;;;;;;;7.98;64.85;99326.65;1762543;80;21522;-62
2021/04/04 10:09:08;;;;;;;8.05;6.10;;;;;;;8.21;65.03;99328.10;1762544;80;21317;-62
2021/04/04 10:11:38;;;;;;;8.48;5.90;;;;;;;8.43;60.29;99334.72;1733273;81;21134;-60
2021/04/04 10:14:13;;;;;;;8.40;5.00;;;;;;;8.27;60.53;99324.85;1729739;82;21210;-60
2021/04/04 10:16:42;;;;;;;7.15;5.10;;;;;;;8.22;59.67;99323.50;1716550;82;21585;-60
2021/04/04 10:19:19;;;;;;;4.70;3.62;;;;;;;8.36;57.84;99318.67;1699911;82;21209;-60
2021/04/04 10:22:00;;;;;;;4.78;3.80;;;;;;;8.63;54.98;99321.72;1715614;83;21294;-60
2021/04/04 10:24:34;;;;;;;6.62;5.50;;;;;;;8.85;54.96;99312.27;1738226;81;21571;-60
2021/04/04 10:27:25;;;;;;;7.10;5.80;;;;;;;8.99;54.51;99318.78;1714170;82;21581;-60
2021/04/04 10:30:16;;;;;;;4.97;4.15;;;;;;;9.12;55.12;99313.34;1706665;82;21811;-60
2021/04/04 10:32:45;;;;;;;7.15;5.67;;;;;;;9.38;55.54;99304.09;1707817;82;21196;-60
2021/04/04 10:35:37;;;;;;;7.15;5.40;;;;;;;9.70;55.63;99302.92;1721758;82;21145;-60
2021/04/04 10:38:07;;;;;;;9.00;5.37;;;;;;;9.95;54.51;99305.56;1722433;82;21551;-60
2021/04/04 10:40:46;;;;;;;6.35;5.15;;;;;;;10.07;54.59;99305.22;1724544;82;21636;-60
2021/04/04 10:43:42;;;;;;;7.33;4.65;;;;;;;9.98;52.38;99309.08;1790893;77;23145;-60
2021/04/04 10:46:15;;;;;;;4.97;2.92;;;;;;;9.78;50.80;99303.69;1747119;80;21143;-61
2021/04/04 10:48:45;;;;;;;5.50;3.77;;;;;;;9.40;51.26;99310.59;1753219;80;21331;-61
2021/04/04 10:51:15;;;;;;;6.17;3.62;;;;;;;9.01;53.01;99325.28;1751122;80;21354;-61
2021/04/04 10:53:43;;;;;;;4.37;3.00;;;;;;;8.63;53.69;99319.83;1750013;80;21172;-62
2021/04/04 10:56:12;;;;;;;3.90;2.47;;;;;;;8.32;54.71;99328.98;1750603;80;21180;-60
2021/04/04 10:58:41;;;;;;;3.80;2.20;;;;;;;7.93;55.58;99331.24;1753072;81;21222;-62
2021/04/04 11:01:12;;;;;;;3.83;2.25;;;;;;;7.74;55.90;99324.09;1754066;82;21153;-61
2021/04/04 11:03:40;;;;;;;3.15;2.10;;;;;;;7.60;56.50;99319.41;1750790;82;21762;-61
2021/04/04 11:06:08;;;;;;;2.52;1.95;;;;;;;7.41;56.06;99323.08;1722233;81;21665;-61
2021/04/04 11:08:36;;;;;;;3.35;2.17;;;;;;;7.35;57.87;99314.12;1748270;80;21309;-61
2021/04/04 11:11:04;;;;;;;3.50;2.50;;;;;;;7.33;58.68;99321.67;1752177;80;21175;-62
2021/04/04 11:13:34;;;;;;;2.27;1.65;;;;;;;7.33;58.18;99318.96;1750246;82;21191;-61
2021/04/04 11:16:06;;;;;;;2.60;1.98;;;;;;;7.45;59.37;99320.13;1721563;80;21308;-61
2021/04/04 11:18:39;;;;;;;3.92;2.80;;;;;;;7.66;59.64;99317.00;1720407;82;21216;-61
2021/04/04 11:21:22;;;;;;;4.25;2.50;;;;;;;7.88;59.31;99314.41;1748659;80;21160;-61
2021/04/04 11:23:53;;;;;;;4.00;2.10;;;;;;;8.16;55.94;99310.45;1753815;80;21551;-64
2021/04/04 11:26:31;;;;;;;3.27;2.00;;;;;;;8.41;53.81;99304.31;1745857;81;21498;-59
2021/04/04 11:29:20;;;;;;;2.02;1.50;;;;;;;8.50;52.13;99301.37;1747090;80;21178;-59
2021/04/04 11:32:16;;;;;;;2.72;1.70;;;;;;;8.57;50.06;99303.28;1743749;81;21163;-59
2021/04/04 11:34:59;;;;;;;3.45;2.47;;;;;;;8.62;50.93;99298.38;1742935;80;21171;-59
2021/04/04 11:37:35;;;;;;;3.33;2.50;;;;;;;8.62;52.50;99301.91;1747893;80;21125;-59
2021/04/04 11:40:16;;;;;;;3.62;2.70;;;;;;;8.55;54.03;99310.85;1747075;80;21165;-59
2021/04/04 11:42:47;;;;;;;4.60;2.83;;;;;;;8.52;55.62;99303.80;1743249;80;21181;-60
2021/04/04 11:45:35;;;;;;;4.03;2.33;;;;;;;8.55;56.49;99312.20;1739477;82;21182;-61
2021/04/04 11:48:31;;;;;;;3.67;2.25;;;;;;;8.59;56.21;99312.48;1719189;81;21768;-59
2021/04/04 11:51:17;;;;;;;2.60;1.80;;;;;;;8.65;55.68;99311.40;1733835;80;21177;-58
2021/04/04 11:53:48;;;;;;;3.77;2.12;;;;;;;8.71;54.18;99316.59;1700606;83;21326;-58
2021/04/04 11:56:44;;;;;;;3.33;2.02;;;;;;;8.48;54.69;99311.65;1740798;80;21162;-59
2021/04/04 11:59:13;;;;;;;2.20;1.90;;;;;;;8.47;55.18;99316.80;1736133;80;21170;-59
2021/04/04 12:01:42;;;;;;;3.45;1.50;;;;;;;8.44;55.09;99316.80;1737078;82;21213;-58
2021/04/04 12:07:15;;;;;;;3.02;1.98;;;;;;;8.68;54.36;99304.89;1789365;79;23143;-58
2021/04/04 12:09:45;;;;;;;1.92;1.50;;;;;;;8.55;54.77;99305.42;1752222;81;21164;-60
2021/04/04 12:12:16;;;;;;;2.70;1.60;;;;;;;8.56;53.91;99297.56;1744144;81;21136;-60
2021/04/04 12:14:52;;;;;;;2.12;1.50;;;;;;;8.44;54.03;99283.43;1756847;81;21187;-60
2021/04/04 12:17:29;;;;;;;2.37;1.63;;;;;;;8.50;53.96;99286.45;1731901;81;21314;-60
2021/04/04 12:19:59;;;;;;;2.72;1.72;;;;;;;8.57;53.66;99301.92;1730199;83;21293;-60
2021/04/04 12:22:40;;;;;;;2.35;1.35;;;;;;;8.57;53.00;99296.49;1736784;81;21175;-60